Time;durP1;ratioP1;P1;durP2;ratioP2;P2;SDS_P1;SDS_P2;PMS_P1;PMS_P2;Temp;Humidity;BMP_temperature;BMP_pressure;BME280_temperature;BME280_humidity;BME280_pressure;Samples;Min_cycle;Max_cycle;Signal;HPM_P1;HPM_P2
2021/08/02 00:00:51;;;;;;;1.20;1.10;;;16.00;98.00;;;;;;5074042;28;20479;-69
2021/08/02 00:03:25;;;;;;;1.40;1.20;;;15.90;98.00;;;;;;5092113;28;21043;-67
2021/08/02 00:05:55;;;;;;;1.20;1.00;;;15.80;98.00;;;;;;5092094;28;20962;-69
2021/08/02 00:08:24;;;;;;;2.43;1.07;;;15.70;98.00;;;;;;5092129;28;20507;-68
2021/08/02 00:10:52;;;;;;;1.20;1.00;;;15.60;98.00;;;;;;5091987;28;20463;-69
2021/08/02 00:13:29;;;;;;;1.20;1.00;;;15.60;98.00;;;;;;5092100;28;20452;-68
2021/08/02 00:15:59;;;;;;;2.13;1.20;;;15.60;98.00;;;;;;5091907;28;21012;-69
2021/08/02 00:18:27;;;;;;;1.60;1.10;;;15.50;98.00;;;;;;5091882;28;20452;-69
2021/08/02 00:20:54;;;;;;;1.97;1.43;;;15.60;98.00;;;;;;5091924;28;20472;-69
2021/08/02 00:23:25;;;;;;;1.40;1.10;;;15.60;98.00;;;;;;5092036;28;20506;-69
2021/08/02 00:25:53;;;;;;;1.20;1.00;;;15.60;98.00;;;;;;5091859;28;20841;-68
2021/08/02 00:28:21;;;;;;;1.20;0.93;;;15.60;98.00;;;;;;5091411;28;20823;-68
2021/08/02 00:30:48;;;;;;;1.30;1.20;;;15.70;98.00;;;;;;5091688;28;20452;-69
2021/08/02 00:33:15;;;;;;;1.20;1.00;;;15.90;98.00;;;;;;5091640;28;20455;-70
2021/08/02 00:35:54;;;;;;;1.20;1.00;;;15.80;98.00;;;;;;5091665;28;20448;-69
2021/08/02 00:38:32;;;;;;;1.20;1.10;;;15.80;98.00;;;;;;5091529;28;20471;-68
2021/08/02 00:41:25;;;;;;;1.30;1.10;;;15.90;98.00;;;;;;5091516;28;20519;-69
2021/08/02 00:44:28;;;;;;;1.60;1.20;;;15.80;98.00;;;;;;5075550;28;20491;-69
2021/08/02 00:47:02;;;;;;;1.50;1.17;;;15.80;98.00;;;;;;5091449;28;20491;-68
2021/08/02 00:49:30;;;;;;;1.20;1.10;;;15.80;98.00;;;;;;5091509;28;20557;-68
2021/08/02 00:51:58;;;;;;;1.20;1.00;;;15.80;98.00;;;;;;5091453;28;20799;-69
2021/08/02 00:54:28;;;;;;;1.20;1.00;;;15.80;98.00;;;;;;5091099;28;20875;-68
2021/08/02 00:56:59;;;;;;;1.20;1.20;;;15.80;98.00;;;;;;5091400;28;20463;-67
2021/08/02 00:59:28;;;;;;;1.20;0.90;;;15.90;98.00;;;;;;5091130;28;20488;-70
2021/08/02 01:01:56;;;;;;;1.20;1.00;;;16.00;98.00;;;;;;5091076;28;20940;-68
2021/08/02 01:04:24;;;;;;;1.20;1.00;;;15.90;98.00;;;;;;5090599;28;20468;-70
2021/08/02 01:06:53;;;;;;;1.20;1.10;;;15.90;98.00;;;;;;5091087;28;20456;-69
2021/08/02 01:09:24;;;;;;;1.33;1.27;;;15.90;98.00;;;;;;5091315;28;20458;-69
2021/08/02 01:11:55;;;;;;;1.37;1.10;;;15.90;98.00;;;;;;5091109;28;20512;-68
2021/08/02 01:14:23;;;;;;;1.20;1.10;;;15.80;98.00;;;;;;5091033;28;20495;-69
2021/08/02 01:16:52;;;;;;;1.20;1.10;;;15.80;98.00;;;;;;5091135;28;20517;-68
2021/08/02 01:19:20;;;;;;;1.20;1.00;;;15.90;98.00;;;;;;5090843;28;20494;-68
2021/08/02 01:21:50;;;;;;;1.20;1.10;;;15.80;98.00;;;;;;5091014;28;20548;-68
2021/08/02 01:24:20;;;;;;;1.20;1.00;;;15.80;98.00;;;;;;5090939;28;20856;-68
2021/08/02 01:27:24;;;;;;;1.83;1.43;;;15.80;98.00;;;;;;5090808;28;20460;-69
2021/08/02 01:30:27;;;;;;;1.20;1.10;;;15.70;98.00;;;;;;5090922;28;20937;-69
2021/08/02 01:32:54;;;;;;;1.30;1.13;;;15.70;98.00;;;;;;5091400;28;20499;-68
2021/08/02 01:35:21;;;;;;;1.30;1.10;;;15.70;98.00;;;;;;5091148;28;20516;-68
2021/08/02 01:37:49;;;;;;;1.30;1.10;;;15.80;98.00;;;;;;5091098;28;20491;-68
2021/08/02 01:40:17;;;;;;;1.67;1.27;;;15.70;98.00;;;;;;5091052;28;20520;-69
2021/08/02 01:42:45;;;;;;;1.20;1.03;;;15.70;98.00;;;;;;5090811;28;20586;-68
2021/08/02 01:45:13;;;;;;;1.20;1.00;;;15.70;98.00;;;;;;5090820;28;20516;-70
2021/08/02 01:47:52;;;;;;;1.33;1.27;;;15.60;98.00;;;;;;5090756;28;20460;-70
2021/08/02 01:50:29;;;;;;;1.30;1.20;;;15.70;98.00;;;;;;5090666;28;20552;-68
2021/08/02 01:53:05;;;;;;;1.20;1.10;;;15.70;98.00;;;;;;5090753;28;20462;-68
2021/08/02 01:55:34;;;;;;;1.33;1.20;;;15.50;98.00;;;;;;5090768;28;20922;-68
2021/08/02 01:58:06;;;;;;;1.20;1.10;;;15.40;98.00;;;;;;5093516;28;20741;-67
2021/08/02 02:00:37;;;;;;;1.20;1.10;;;15.30;98.00;;;;;;5094443;28;20527;-68
2021/08/02 02:03:12;;;;;;;1.20;1.00;;;15.30;98.00;;;;;;5094485;28;20479;-69
2021/08/02 02:05:42;;;;;;;1.40;1.17;;;15.40;98.00;;;;;;5094431;28;20455;-69
2021/08/02 02:08:14;;;;;;;2.13;1.30;;;15.50;98.00;;;;;;5094280;28;20463;-67
2021/08/02 02:10:47;;;;;;;1.70;1.20;;;15.60;98.00;;;;;;5094202;28;20537;-69
2021/08/02 02:13:16;;;;;;;1.20;1.10;;;15.50;98.00;;;;;;5094174;28;20503;-69
2021/08/02 02:15:48;;;;;;;1.20;1.03;;;15.50;98.00;;;;;;5094352;28;20481;-68
2021/08/02 02:18:17;;;;;;;1.20;1.03;;;15.40;98.00;;;;;;5094170;28;20869;-69
2021/08/02 02:20:44;;;;;;;1.57;1.53;;;15.40;98.00;;;;;;5093908;28;20524;-68
2021/08/02 02:23:13;;;;;;;1.20;1.00;;;15.40;98.00;;;;;;5094044;28;20493;-69
2021/08/02 02:25:43;;;;;;;1.20;1.10;;;15.50;98.00;;;;;;5076022;28;20451;-68
2021/08/02 02:28:18;;;;;;;1.60;1.30;;;15.60;98.00;;;;;;5093817;28;20468;-68
2021/08/02 02:30:47;;;;;;;2.03;1.30;;;15.70;98.00;;;;;;5076779;28;20737;-68
2021/08/02 02:33:17;;;;;;;1.20;1.10;;;15.70;98.00;;;;;;5093942;28;20459;-68
2021/08/02 02:35:47;;;;;;;1.40;1.10;;;15.60;98.00;;;;;;5093951;28;20463;-69
2021/08/02 02:38:16;;;;;;;1.20;1.10;;;15.60;98.00;;;;;;5093760;28;20524;-69
2021/08/02 02:40:46;;;;;;;1.20;1.00;;;15.60;98.00;;;;;;5093741;28;20538;-69
2021/08/02 02:43:14;;;;;;;1.67;1.20;;;15.60;98.00;;;;;;5093527;28;20523;-68
2021/08/02 02:45:44;;;;;;;1.20;1.07;;;15.70;98.00;;;;;;5093772;28;20467;-69
2021/08/02 02:48:13;;;;;;;1.40;1.20;;;15.70;98.00;;;;;;5093558;28;20504;-68
2021/08/02 02:50:42;;;;;;;1.43;1.10;;;15.70;98.00;;;;;;5093579;28;20832;-68
2021/08/02 02:53:10;;;;;;;2.60;1.47;;;15.80;98.00;;;;;;5093522;28;20540;-68
2021/08/02 02:55:38;;;;;;;1.20;1.20;;;15.90;98.00;;;;;;5093694;28;20464;-68
2021/08/02 02:58:06;;;;;;;1.63;1.20;;;15.80;98.00;;;;;;5093647;28;20479;-68
2021/08/02 03:00:35;;;;;;;1.80;1.20;;;16.00;98.00;;;;;;5093779;28;20698;-68
2021/08/02 03:03:03;;;;;;;1.70;1.20;;;16.00;98.00;;;;;;5093487;28;20491;-68
2021/08/02 03:05:33;;;;;;;1.20;1.20;;;15.90;98.00;;;;;;5093540;28;20456;-69
2021/08/02 03:08:01;;;;;;;1.30;1.10;;;15.80;98.00;;;;;;5093068;28;20509;-69
2021/08/02 03:10:30;;;;;;;1.40;1.30;;;15.80;98.00;;;;;;5093271;28;20460;-69
2021/08/02 03:12:57;;;;;;;1.47;1.10;;;15.90;98.00;;;;;;5093078;28;20455;-68
2021/08/02 03:15:25;;;;;;;4.90;1.20;;;15.90;98.00;;;;;;5093182;28;20693;-68
2021/08/02 03:17:52;;;;;;;1.30;1.13;;;16.00;98.00;;;;;;5093334;28;20448;-69
2021/08/02 03:20:19;;;;;;;1.20;1.03;;;15.90;98.00;;;;;;5092767;28;20521;-69
2021/08/02 03:22:49;;;;;;;1.20;1.07;;;15.70;98.00;;;;;;5092892;28;20897;-67
2021/08/02 03:25:22;;;;;;;1.20;1.00;;;15.60;98.00;;;;;;5092773;28;20509;-68
2021/08/02 03:27:56;;;;;;;1.40;1.20;;;15.60;98.00;;;;;;5092748;28;20451;-68
2021/08/02 03:30:26;;;;;;;1.80;1.50;;;15.60;98.00;;;;;;5092844;28;20460;-68
2021/08/02 03:32:55;;;;;;;1.33;1.20;;;15.50;98.00;;;;;;5092796;28;20521;-69
2021/08/02 03:35:22;;;;;;;1.43;1.10;;;15.50;98.00;;;;;;5092718;28;20460;-68
2021/08/02 03:37:53;;;;;;;1.20;1.20;;;15.60;98.00;;;;;;5092735;28;20477;-67
2021/08/02 03:40:22;;;;;;;1.30;1.10;;;15.60;98.00;;;;;;5092441;28;20480;-68
2021/08/02 03:42:49;;;;;;;1.30;1.10;;;15.50;98.00;;;;;;5092551;28;20491;-68
2021/08/02 03:45:19;;;;;;;1.97;1.30;;;15.50;98.00;;;;;;5092456;28;21035;-69
2021/08/02 03:47:47;;;;;;;1.20;1.10;;;15.60;98.00;;;;;;5092406;28;20488;-70
2021/08/02 03:50:14;;;;;;;1.87;1.20;;;15.50;98.00;;;;;;5092472;28;20498;-69
2021/08/02 03:52:41;;;;;;;1.30;1.10;;;15.40;98.00;;;;;;5092249;28;20497;-69
2021/08/02 03:55:12;;;;;;;1.20;1.10;;;15.40;98.00;;;;;;5092362;28;20509;-69
2021/08/02 03:57:39;;;;;;;1.20;1.10;;;15.40;98.00;;;;;;5092339;28;20464;-68
2021/08/02 04:00:08;;;;;;;1.40;1.37;;;15.20;98.00;;;;;;5092203;28;20513;-67
2021/08/02 04:02:34;;;;;;;1.20;1.10;;;15.30;98.00;;;;;;5091496;28;20487;-68
2021/08/02 04:05:03;;;;;;;1.30;1.10;;;15.30;98.00;;;;;;5092169;28;20523;-67
2021/08/02 04:07:30;;;;;;;1.77;1.10;;;15.30;98.00;;;;;;5092246;28;20456;-69
2021/08/02 04:09:59;;;;;;;1.50;1.20;;;15.30;98.00;;;;;;5091824;28;20504;-68
2021/08/02 04:12:26;;;;;;;1.20;1.00;;;15.40;98.00;;;;;;5092097;28;20459;-68
2021/08/02 04:14:53;;;;;;;1.33;1.20;;;15.60;98.00;;;;;;5092127;28;20459;-69
2021/08/02 04:17:21;;;;;;;1.30;1.17;;;15.60;98.00;;;;;;5092420;28;20451;-67
2021/08/02 04:19:48;;;;;;;1.20;1.10;;;15.70;98.00;;;;;;5073571;28;20463;-70
2021/08/02 04:22:16;;;;;;;1.20;1.10;;;15.50;98.00;;;;;;5091982;28;20487;-68
2021/08/02 04:24:43;;;;;;;1.20;1.10;;;15.40;98.00;;;;;;5091985;28;20871;-68
2021/08/02 04:27:10;;;;;;;1.20;1.10;;;15.40;98.00;;;;;;5092064;28;20577;-69
2021/08/02 04:29:37;;;;;;;1.20;1.10;;;15.40;98.00;;;;;;5091650;28;20452;-68
2021/08/02 04:32:05;;;;;;;1.20;1.00;;;15.50;98.00;;;;;;5091874;28;20455;-69
2021/08/02 04:34:32;;;;;;;1.60;1.20;;;15.50;98.00;;;;;;5091786;28;20870;-68
2021/08/02 04:37:07;;;;;;;1.20;1.07;;;15.40;98.00;;;;;;5091618;28;20541;-68
2021/08/02 04:39:36;;;;;;;1.50;1.10;;;15.30;98.00;;;;;;5091360;28;20463;-69
2021/08/02 04:42:03;;;;;;;1.27;1.20;;;15.40;98.00;;;;;;5091497;28;21059;-69
2021/08/02 04:44:30;;;;;;;3.10;1.47;;;15.30;98.00;;;;;;5091392;28;20463;-68
2021/08/02 04:46:57;;;;;;;1.57;1.20;;;15.40;98.00;;;;;;5091517;28;20492;-69
2021/08/02 04:49:24;;;;;;;1.70;1.10;;;15.50;98.00;;;;;;5091332;28;20512;-67
2021/08/02 04:51:51;;;;;;;1.20;1.20;;;15.50;98.00;;;;;;5091350;28;20459;-69
2021/08/02 04:54:18;;;;;;;1.30;1.20;;;15.50;98.00;;;;;;5091222;28;20459;-69
2021/08/02 04:56:46;;;;;;;1.33;1.17;;;15.60;98.00;;;;;;5091292;28;20460;-68
2021/08/02 04:59:13;;;;;;;1.20;1.10;;;15.60;98.00;;;;;;5091192;28;20455;-69
2021/08/02 05:01:40;;;;;;;2.30;1.27;;;15.50;98.00;;;;;;5090965;28;20942;-68
2021/08/02 05:04:07;;;;;;;1.30;1.10;;;15.50;98.00;;;;;;5091124;28;20487;-69
2021/08/02 05:06:34;;;;;;;1.30;1.20;;;15.40;98.00;;;;;;5091072;28;20513;-68
2021/08/02 05:09:09;;;;;;;1.20;1.20;;;15.40;98.00;;;;;;5091149;28;20920;-67
2021/08/02 05:11:40;;;;;;;1.40;1.10;;;15.50;98.00;;;;;;5087869;28;20481;-69
2021/08/02 05:14:08;;;;;;;1.33;1.27;;;15.60;98.00;;;;;;5091047;28;20466;-68
2021/08/02 05:16:36;;;;;;;1.30;1.10;;;15.80;98.00;;;;;;5091247;28;20514;-68
2021/08/02 05:19:03;;;;;;;1.30;1.20;;;15.90;98.00;;;;;;5090916;28;20870;-68
2021/08/02 05:21:31;;;;;;;1.87;1.20;;;16.00;98.00;;;;;;5090884;28;20464;-69
2021/08/02 05:23:58;;;;;;;1.50;1.20;;;16.00;98.00;;;;;;5090914;28;20516;-69
2021/08/02 05:26:25;;;;;;;1.50;1.27;;;16.00;98.00;;;;;;5091044;28;20486;-68
2021/08/02 05:28:52;;;;;;;1.30;1.30;;;16.00;98.00;;;;;;5090839;28;20590;-67
2021/08/02 05:31:23;;;;;;;1.20;1.20;;;16.10;98.00;;;;;;5090938;28;20459;-68
2021/08/02 05:33:50;;;;;;;1.20;1.10;;;16.20;98.00;;;;;;5095146;28;20454;-68
2021/08/02 05:36:19;;;;;;;1.50;1.30;;;16.30;98.00;;;;;;5095284;28;20540;-68
2021/08/02 05:38:46;;;;;;;1.70;1.27;;;16.20;98.00;;;;;;5094840;28;20455;-69
2021/08/02 05:41:13;;;;;;;1.50;1.00;;;16.10;98.00;;;;;;5095237;28;20448;-68
2021/08/02 05:43:40;;;;;;;1.60;1.10;;;16.10;98.00;;;;;;5094830;28;20537;-69
2021/08/02 05:46:07;;;;;;;1.50;1.30;;;16.10;98.00;;;;;;5095024;28;20516;-68
2021/08/02 05:48:35;;;;;;;1.83;1.50;;;16.10;98.00;;;;;;5094848;28;20809;-68
2021/08/02 05:51:02;;;;;;;1.87;1.33;;;15.90;98.00;;;;;;5094752;28;20505;-68
2021/08/02 05:53:30;;;;;;;3.63;1.20;;;15.80;98.00;;;;;;5094578;28;20458;-67
2021/08/02 05:55:57;;;;;;;1.73;1.40;;;15.80;98.00;;;;;;5094732;28;20489;-70
2021/08/02 05:58:23;;;;;;;1.20;1.00;;;15.90;98.00;;;;;;5094610;28;20966;-68
2021/08/02 06:00:50;;;;;;;1.30;1.13;;;16.10;98.00;;;;;;5094634;28;20503;-69
2021/08/02 06:03:19;;;;;;;1.73;1.20;;;16.20;98.00;;;;;;5095062;28;20908;-68
2021/08/02 06:05:47;;;;;;;1.67;1.20;;;16.30;98.00;;;;;;5094566;28;20469;-67
2021/08/02 06:08:20;;;;;;;1.20;1.13;;;16.40;98.00;;;;;;5094603;28;20456;-68
2021/08/02 06:10:47;;;;;;;1.20;1.00;;;16.40;98.00;;;;;;5094404;28;20456;-68
2021/08/02 06:13:14;;;;;;;1.30;1.20;;;16.40;98.00;;;;;;5095231;28;20456;-68
2021/08/02 06:15:41;;;;;;;1.23;1.10;;;16.50;98.00;;;;;;5095452;28;20488;-68
2021/08/02 06:18:08;;;;;;;1.77;1.77;;;16.70;98.00;;;;;;5094817;28;20516;-68
2021/08/02 06:20:35;;;;;;;1.20;1.10;;;16.80;98.00;;;;;;5095101;28;20503;-69
2021/08/02 06:23:04;;;;;;;1.60;1.20;;;16.80;98.00;;;;;;5094560;28;21012;-69
2021/08/02 06:25:31;;;;;;;1.20;1.10;;;16.90;98.00;;;;;;5094122;28;20456;-68
2021/08/02 06:27:59;;;;;;;1.20;1.10;;;16.90;98.00;;;;;;5094196;28;20452;-70
2021/08/02 06:30:26;;;;;;;1.20;1.20;;;17.00;98.00;;;;;;5094162;28;20517;-71
2021/08/02 06:32:53;;;;;;;1.20;1.10;;;17.00;98.00;;;;;;5094101;28;20501;-69
2021/08/02 06:35:21;;;;;;;1.50;1.10;;;17.10;98.00;;;;;;5076112;28;20448;-68
2021/08/02 06:37:47;;;;;;;2.03;1.43;;;17.20;98.00;;;;;;5094018;28;20890;-69
2021/08/02 06:40:17;;;;;;;1.20;1.00;;;17.10;98.00;;;;;;5093945;28;20556;-68
2021/08/02 06:42:46;;;;;;;1.50;1.30;;;17.20;98.00;;;;;;5093138;28;20484;-70
2021/08/02 06:45:14;;;;;;;1.20;1.10;;;17.20;98.00;;;;;;5076042;28;20463;-69
2021/08/02 06:47:41;;;;;;;1.30;1.17;;;17.20;98.00;;;;;;5093800;28;20464;-69
2021/08/02 06:50:10;;;;;;;1.30;1.30;;;17.20;98.00;;;;;;5093753;28;20870;-68
2021/08/02 06:52:37;;;;;;;1.20;1.20;;;17.20;98.00;;;;;;5093753;28;20456;-70
2021/08/02 06:55:04;;;;;;;1.40;1.30;;;17.00;98.00;;;;;;5093711;28;20448;-68
2021/08/02 06:57:36;;;;;;;1.20;1.10;;;16.90;98.00;;;;;;5093760;28;20491;-68
2021/08/02 07:00:04;;;;;;;2.70;1.50;;;16.90;98.00;;;;;;5094045;28;20463;-69
2021/08/02 07:02:31;;;;;;;1.20;1.10;;;17.00;98.00;;;;;;5093691;28;20990;-68
2021/08/02 07:04:58;;;;;;;1.30;1.10;;;17.20;98.00;;;;;;5093438;28;20529;-69
2021/08/02 07:07:25;;;;;;;1.20;1.20;;;17.40;98.00;;;;;;5093692;28;20460;-69
2021/08/02 07:09:52;;;;;;;1.20;1.07;;;17.40;98.00;;;;;;5093393;28;20482;-71
2021/08/02 07:12:19;;;;;;;1.40;1.20;;;17.40;98.00;;;;;;5093428;28;20529;-69
2021/08/02 07:14:47;;;;;;;1.20;1.10;;;17.30;98.00;;;;;;5093111;28;20934;-69
2021/08/02 07:17:14;;;;;;;1.30;1.10;;;17.40;98.00;;;;;;5093390;28;20546;-70
2021/08/02 07:19:41;;;;;;;1.50;1.20;;;17.50;98.00;;;;;;5092923;28;20530;-68
2021/08/02 07:22:08;;;;;;;2.43;1.20;;;17.50;98.00;;;;;;5093076;28;20509;-70
2021/08/02 07:24:35;;;;;;;1.30;1.20;;;17.60;98.00;;;;;;5092730;28;21013;-68
2021/08/02 07:27:02;;;;;;;1.27;1.20;;;17.60;98.00;;;;;;5092896;28;20452;-69
2021/08/02 07:29:29;;;;;;;1.30;1.10;;;17.70;98.00;;;;;;5074894;28;20456;-69
2021/08/02 07:31:58;;;;;;;1.20;1.20;;;17.80;98.00;;;;;;5093101;28;20484;-69
2021/08/02 07:34:25;;;;;;;1.30;1.13;;;18.00;98.00;;;;;;5092638;28;20981;-69
2021/08/02 07:36:52;;;;;;;1.73;1.40;;;18.10;98.00;;;;;;5074671;28;20513;-71
2021/08/02 07:39:19;;;;;;;1.30;1.10;;;18.20;98.00;;;;;;5090681;28;20858;-70
2021/08/02 07:41:46;;;;;;;1.50;1.40;;;18.10;98.00;;;;;;5089771;28;20455;-69
2021/08/02 07:44:14;;;;;;;1.50;1.20;;;18.10;98.00;;;;;;5089952;28;20987;-70
2021/08/02 07:46:41;;;;;;;1.30;1.30;;;18.00;98.00;;;;;;5089607;28;20819;-69
2021/08/02 07:49:11;;;;;;;1.53;1.30;;;18.00;98.00;;;;;;5088506;28;20986;-69
2021/08/02 07:51:38;;;;;;;1.20;1.20;;;18.10;98.00;;;;;;5088883;28;20885;-69
2021/08/02 07:54:05;;;;;;;1.40;1.10;;;18.20;98.00;;;;;;5089080;28;20456;-68
2021/08/02 07:56:33;;;;;;;1.60;1.27;;;18.30;98.00;;;;;;5089558;28;20496;-71
2021/08/02 07:59:02;;;;;;;1.30;1.30;;;18.40;98.00;;;;;;5089346;28;20467;-69
2021/08/02 08:01:36;;;;;;;1.20;1.10;;;18.40;98.00;;;;;;5089702;28;20460;-69
2021/08/02 08:04:04;;;;;;;1.27;1.07;;;18.60;98.00;;;;;;5089346;28;20484;-69
2021/08/02 08:06:33;;;;;;;1.23;1.20;;;18.60;98.00;;;;;;5089580;28;20486;-71
2021/08/02 08:09:00;;;;;;;2.00;1.20;;;18.70;98.00;;;;;;5086454;28;21022;-69
2021/08/02 08:11:27;;;;;;;1.30;1.23;;;18.90;98.00;;;;;;5089570;28;20460;-68
2021/08/02 08:13:54;;;;;;;1.20;1.20;;;18.90;98.00;;;;;;5088217;28;20451;-70
2021/08/02 08:16:21;;;;;;;1.40;1.30;;;19.00;98.00;;;;;;5089485;28;20452;-69
2021/08/02 08:18:48;;;;;;;1.20;1.20;;;19.10;98.00;;;;;;5089263;28;20568;-69
2021/08/02 08:21:15;;;;;;;1.20;1.10;;;19.30;98.00;;;;;;5089010;28;20463;-69
2021/08/02 08:23:43;;;;;;;1.30;1.20;;;19.40;98.00;;;;;;5088884;28;20567;-72
2021/08/02 08:26:10;;;;;;;1.20;1.10;;;19.40;98.00;;;;;;5089223;28;20459;-68
2021/08/02 08:28:45;;;;;;;1.30;1.20;;;19.40;98.00;;;;;;5088817;28;20820;-69
2021/08/02 08:31:12;;;;;;;1.20;1.13;;;19.50;98.00;;;;;;5089083;28;20455;-73
2021/08/02 08:33:42;;;;;;;1.30;1.20;;;19.60;98.00;;;;;;5089480;28;20913;-68
2021/08/02 08:36:11;;;;;;;1.50;1.30;;;19.60;98.00;;;;;;5088902;28;20551;-69
2021/08/02 08:38:38;;;;;;;1.57;1.30;;;19.80;98.00;;;;;;5088736;28;20482;-69
2021/08/02 08:41:10;;;;;;;1.73;1.20;;;19.70;98.00;;;;;;5087567;28;20545;-68
2021/08/02 08:43:38;;;;;;;1.20;1.07;;;19.60;98.00;;;;;;5088734;28;20475;-69
2021/08/02 08:46:05;;;;;;;1.50;1.50;;;19.60;98.00;;;;;;5051427;28;21033;-69
2021/08/02 08:48:32;;;;;;;1.53;1.47;;;19.60;98.00;;;;;;5088330;28;20451;-69
2021/08/02 08:51:05;;;;;;;1.30;1.10;;;19.60;98.00;;;;;;5086384;28;20512;-69
2021/08/02 08:53:32;;;;;;;1.30;1.27;;;19.60;98.00;;;;;;5088480;28;20891;-69
2021/08/02 08:56:00;;;;;;;1.20;1.10;;;19.60;98.00;;;;;;5088739;28;21016;-69
2021/08/02 08:58:29;;;;;;;1.20;1.10;;;19.70;98.00;;;;;;5088577;28;20539;-67
2021/08/02 09:01:06;;;;;;;1.20;1.13;;;19.60;98.00;;;;;;5088643;28;20452;-69
2021/08/02 09:03:33;;;;;;;1.20;1.17;;;19.80;98.00;;;;;;5088209;28;20966;-68
2021/08/02 09:06:04;;;;;;;1.40;1.20;;;19.90;98.00;;;;;;5087865;28;20855;-70
2021/08/02 09:08:31;;;;;;;1.30;1.20;;;20.20;98.00;;;;;;5087986;28;20505;-71
2021/08/02 09:11:00;;;;;;;1.20;1.20;;;20.10;98.00;;;;;;5087886;28;20521;-71
2021/08/02 09:13:34;;;;;;;1.30;1.20;;;20.30;98.00;;;;;;5087059;28;20547;-67
2021/08/02 09:16:12;;;;;;;1.20;1.10;;;20.50;98.00;;;;;;5088090;28;20921;-68
2021/08/02 09:18:40;;;;;;;1.30;1.23;;;20.60;98.00;;;;;;5088034;28;20471;-67
2021/08/02 09:21:08;;;;;;;1.20;1.13;;;20.60;98.00;;;;;;5088217;28;20468;-67
2021/08/02 09:23:46;;;;;;;1.20;1.20;;;20.50;98.00;;;;;;5088421;28;21002;-66
2021/08/02 09:26:14;;;;;;;1.47;1.23;;;20.50;98.00;;;;;;5088957;28;20541;-65
2021/08/02 09:28:52;;;;;;;1.20;1.20;;;20.70;98.00;;;;;;5087528;28;20491;-68
2021/08/02 09:31:19;;;;;;;1.30;1.20;;;20.80;98.00;;;;;;5087967;28;20602;-66
2021/08/02 09:33:51;;;;;;;1.20;1.17;;;21.00;98.00;;;;;;5088626;28;20462;-66
2021/08/02 09:36:18;;;;;;;1.70;1.30;;;21.00;98.00;;;;;;5089031;28;20452;-66
2021/08/02 09:38:46;;;;;;;1.90;1.40;;;21.30;98.00;;;;;;5088434;28;20483;-67
2021/08/02 09:41:21;;;;;;;1.30;1.30;;;21.40;98.00;;;;;;5087077;28;20448;-66
2021/08/02 09:43:52;;;;;;;1.30;1.30;;;21.60;98.00;;;;;;5087591;28;20490;-66
2021/08/02 09:46:20;;;;;;;1.37;1.23;;;21.60;98.00;;;;;;5070293;28;20889;-67
2021/08/02 09:48:48;;;;;;;1.53;1.20;;;21.80;98.00;;;;;;5087708;28;20484;-67
2021/08/02 09:51:17;;;;;;;2.90;1.30;;;22.10;98.00;;;;;;5068394;28;20460;-67
2021/08/02 09:53:45;;;;;;;1.20;1.10;;;22.20;98.00;;;;;;5088584;28;20522;-67
2021/08/02 09:56:13;;;;;;;1.50;1.40;;;22.10;97.50;;;;;;5087552;28;20455;-67
2021/08/02 09:58:42;;;;;;;1.30;1.20;;;22.10;98.00;;;;;;5087140;28;20604;-68
2021/08/02 10:01:15;;;;;;;1.90;1.40;;;22.30;96.60;;;;;;5088752;28;20999;-66
2021/08/02 10:03:42;;;;;;;1.87;1.20;;;22.50;96.20;;;;;;5087100;28;20495;-68
2021/08/02 10:06:11;;;;;;;1.30;1.30;;;22.60;95.60;;;;;;5086780;28;20460;-67
2021/08/02 10:08:40;;;;;;;1.30;1.10;;;22.40;93.90;;;;;;5087747;28;20584;-67
2021/08/02 10:11:08;;;;;;;1.20;1.20;;;22.20;95.70;;;;;;5088471;28;20490;-66
2021/08/02 10:13:38;;;;;;;1.30;1.30;;;21.90;96.70;;;;;;5087016;28;20568;-67
2021/08/02 10:16:08;;;;;;;1.60;1.30;;;21.90;98.00;;;;;;5088379;28;20459;-66
2021/08/02 10:18:37;;;;;;;1.20;1.10;;;22.00;95.00;;;;;;5090274;28;20512;-65
2021/08/02 10:21:06;;;;;;;1.20;1.10;;;21.90;96.10;;;;;;5091514;28;20509;-66
2021/08/02 10:23:35;;;;;;;1.20;1.10;;;21.90;98.00;;;;;;5092299;28;20544;-67
2021/08/02 10:26:02;;;;;;;1.20;1.10;;;22.00;97.40;;;;;;5092407;28;20440;-67
2021/08/02 10:28:29;;;;;;;1.23;1.10;;;22.00;96.50;;;;;;5092053;28;20487;-67
2021/08/02 10:31:05;;;;;;;1.30;1.30;;;22.20;97.30;;;;;;5092021;28;20499;-68
2021/08/02 10:33:36;;;;;;;1.20;1.20;;;22.60;98.00;;;;;;5092244;28;20860;-71
2021/08/02 10:36:14;;;;;;;1.60;1.30;;;23.00;96.00;;;;;;5092356;28;20469;-68
2021/08/02 10:38:43;;;;;;;1.40;1.30;;;23.20;92.60;;;;;;5065944;28;20463;-67
2021/08/02 10:41:11;;;;;;;1.20;1.10;;;23.50;92.20;;;;;;5090744;28;20455;-68
2021/08/02 10:43:40;;;;;;;1.30;1.20;;;23.40;90.80;;;;;;5091388;28;20484;-67
2021/08/02 10:46:18;;;;;;;1.57;1.20;;;23.60;92.60;;;;;;5091764;28;20460;-68
2021/08/02 10:48:48;;;;;;;1.23;1.10;;;23.90;89.30;;;;;;5091445;28;20978;-68
2021/08/02 10:51:18;;;;;;;1.20;1.13;;;24.20;88.30;;;;;;5089810;28;20521;-68
2021/08/02 10:53:56;;;;;;;1.20;1.17;;;24.50;89.30;;;;;;5073459;28;20573;-69
2021/08/02 10:56:26;;;;;;;1.80;1.50;;;24.80;86.10;;;;;;5091882;28;21015;-68
2021/08/02 10:58:56;;;;;;;1.30;1.20;;;24.50;85.50;;;;;;5090904;28;20460;-69
2021/08/02 11:01:26;;;;;;;1.50;1.33;;;24.20;87.30;;;;;;5091519;28;20456;-69
2021/08/02 11:03:56;;;;;;;1.57;1.20;;;24.50;90.00;;;;;;5091283;28;20492;-69
2021/08/02 11:06:24;;;;;;;1.50;1.40;;;24.80;88.20;;;;;;5090940;28;20490;-69
2021/08/02 11:08:54;;;;;;;1.40;1.30;;;24.60;88.00;;;;;;5091247;28;20513;-68
2021/08/02 11:11:23;;;;;;;1.30;1.27;;;24.40;88.90;;;;;;5091031;28;20460;-68
2021/08/02 11:13:51;;;;;;;1.20;1.10;;;23.90;86.70;;;;;;5089876;28;20958;-68
2021/08/02 11:16:19;;;;;;;1.23;1.13;;;23.30;89.40;;;;;;5090824;28;20452;-67
2021/08/02 11:18:48;;;;;;;1.20;1.10;;;22.50;90.50;;;;;;5091002;28;20525;-68
2021/08/02 11:21:27;;;;;;;1.20;1.10;;;21.90;92.90;;;;;;5090833;28;20468;-68
2021/08/02 11:24:08;;;;;;;1.20;1.20;;;21.40;96.80;;;;;;5090769;28;20569;-67
2021/08/02 11:26:51;;;;;;;1.30;1.10;;;21.10;98.00;;;;;;5091215;28;20452;-67
2021/08/02 11:29:19;;;;;;;1.20;1.10;;;20.80;98.00;;;;;;5082674;28;20460;-68
2021/08/02 11:32:16;;;;;;;5.43;2.67;;;20.40;98.00;;;;;;5090385;28;20471;-68
2021/08/02 11:34:45;;;;;;;1.40;1.37;;;19.90;98.00;;;;;;5090446;28;20880;-69
2021/08/02 11:37:15;;;;;;;1.20;1.00;;;19.80;98.00;;;;;;5090788;28;20941;-68
2021/08/02 11:39:45;;;;;;;1.30;1.20;;;19.70;98.00;;;;;;5090454;28;20475;-67
2021/08/02 11:42:14;;;;;;;1.20;1.10;;;19.50;98.00;;;;;;5089261;28;20938;-70
2021/08/02 11:44:44;;;;;;;1.30;1.27;;;19.20;98.00;;;;;;5090151;28;20832;-68
2021/08/02 11:47:15;;;;;;;1.40;1.27;;;19.30;98.00;;;;;;5090609;28;20952;-68
2021/08/02 11:49:43;;;;;;;1.20;1.03;;;19.30;98.00;;;;;;5087436;28;20453;-68
2021/08/02 11:52:10;;;;;;;1.20;1.10;;;19.90;98.00;;;;;;5090535;28;20533;-68
2021/08/02 11:54:39;;;;;;;1.20;1.20;;;20.20;98.00;;;;;;5090348;28;20455;-69
2021/08/02 11:57:18;;;;;;;1.20;1.03;;;20.50;98.00;;;;;;5090151;28;20456;-68
2021/08/02 11:59:55;;;;;;;1.50;1.27;;;20.70;98.00;;;;;;5090074;28;20458;-68
2021/08/02 12:02:31;;;;;;;1.40;1.33;;;21.00;98.00;;;;;;5089670;28;21015;-69
2021/08/02 12:04:59;;;;;;;1.40;1.30;;;21.50;98.00;;;;;;5090175;28;20491;-70
2021/08/02 12:07:27;;;;;;;1.20;1.20;;;21.50;98.00;;;;;;5089871;28;20452;-69
2021/08/02 12:09:56;;;;;;;1.30;1.30;;;21.50;98.00;;;;;;5090079;28;20464;-68
2021/08/02 12:12:24;;;;;;;1.20;1.10;;;21.50;98.00;;;;;;5090325;28;20790;-71
2021/08/02 12:14:52;;;;;;;1.30;1.17;;;21.40;98.00;;;;;;5089801;28;20509;-68
2021/08/02 12:17:20;;;;;;;1.20;1.20;;;21.40;98.00;;;;;;5090130;28;20511;-71
2021/08/02 12:19:48;;;;;;;1.30;1.27;;;21.40;98.00;;;;;;5089767;28;20474;-68
2021/08/02 12:22:16;;;;;;;1.20;1.03;;;21.60;98.00;;;;;;5089955;28;20455;-69
2021/08/02 12:24:56;;;;;;;1.40;1.30;;;21.70;98.00;;;;;;5089321;28;20531;-69
2021/08/02 12:27:25;;;;;;;1.20;1.07;;;21.70;98.00;;;;;;5089059;28;20512;-69
2021/08/02 12:29:58;;;;;;;1.57;1.50;;;21.80;98.00;;;;;;5088928;28;20448;-68
2021/08/02 12:32:38;;;;;;;1.40;1.30;;;21.80;98.00;;;;;;5089190;28;20460;-69
2021/08/02 12:35:08;;;;;;;1.20;1.03;;;21.80;98.00;;;;;;5089320;28;20798;-70
2021/08/02 12:37:36;;;;;;;1.30;1.20;;;21.60;98.00;;;;;;5089055;28;20463;-69
2021/08/02 12:40:07;;;;;;;1.30;1.13;;;21.70;98.00;;;;;;5089263;28;20487;-69
2021/08/02 12:42:35;;;;;;;1.20;1.10;;;22.40;98.00;;;;;;5087550;28;20505;-69
2021/08/02 12:45:02;;;;;;;1.30;1.20;;;23.00;98.00;;;;;;5071388;28;20492;-70
2021/08/02 12:47:57;;;;;;;1.20;1.10;;;23.40;95.10;;;;;;5089177;28;20862;-68
2021/08/02 12:50:25;;;;;;;1.20;1.20;;;23.70;96.50;;;;;;5086840;28;20456;-66
2021/08/02 12:55:32;;;;;;;1.30;1.20;;;24.00;95.10;;;;;;5036898;28;20485;-68
